Página principal
METAR-TAF:

METAR-TAF

Aeroportos :

Rarotonga, Ilhas Cook

latitude: 21-12S, longitude: 159-49W, altura: 7 m

Observação actual do tempo

O boletim foi feito há 17 minutos, às 13:00 UTC
Vento 8 kt de este, variando entre es-nordeste e sudeste
Temperatura 24°C
Humidade 74%
Pressão 1012 hPa
Visibilidade 10 km ou mais

METAR: NCRG 161300Z AUTO 09008KT 060V130 9999 FEW029/// SCT044/// 24/19 Q1012

Hora: 03:17 (13:17 UTC)

Previsão

O boletim foi feito há 2 horas e 6 minutos, às 11:11 UTC
Previsão válida de 16 às 12 UTC a 17 às 12 UTC
Vento 8 kt de este
Visibilidade 10 km ou mais
Nuvens dispersasa uma altura de 2000 ft
Temporariamente
de 16 às 06 UTC a 17 às 06 UTC
Vento 15 kt de este com rajadas de 25 kt

TAF: NCRG 161111Z 1612/1712 09008KT 9999 SCT020 TEMPO 1606/1706 09015G25KT

Observações e previsões do tempo de mais de 4000 aeroportos (mensagens METAR e TAF).

As estações disponíveis são os pontos amarelos e vermelhos sobre o mapa.

Mova o rato sobre o mapa para ver o nome da estação.

Depois clique no ponto para visualizar as observações e previsões meteorológicas.

Para alterar o mapa : clique nos botões verdes com uma cruz preta para aumentar o zoom; no botão verde com uma pitada de zoom; ou nas setas verdes para mapas adjacentes.


METAR-TAF: